weather

2020/09/13

Tokyo Haneda International Airport
JAPAN
RJTT, HND
Location (latitude, longitude): 35.552299, 139.779999
Elevation: 10.668 meter

METAR: RJTT 121430Z 34010KT 9999 -SHRA FEW003 SCT008 BKN010 24/23 Q1011 BECMG FEW008 BKN015 RMK 1ST003 3CU008 6CU010 A2987

TAF: TAF RJTT 121105Z 1212/1318 34012KT 9999 FEW008 BKN012 TEMPO 1212/1214 FEW005 BKN008 BECMG 1220/1222 18006KT BECMG 1303/1306 18016KT BECMG 1312/1315 32007KT

-----------------------------

Narita International Airport
JAPAN
RJAA, NRT
Location (latitude, longitude): 35.7647018433, 140.386001587
Elevation: 42.9768 meter

METAR: RJAA 121430Z 35011KT 9999 -SHRA FEW004 SCT005 BKN006 23/23 Q1011 NOSIG RMK 1ST004 4ST005 7ST006 A2986

TAF: TAF RJAA 121105Z 1212/1318 32008KT 9999 FEW005 BKN008 TEMPO 1212/1215 3000 -SHRA BR FEW002 BKN004 BECMG 1215/1217 FEW008 SCT015 BECMG 1300/1303 10006KT

-----------------------------